createdAt,value
2023-04-24T00:02:23.073Z,11.81
2023-04-24T00:05:09.924Z,11.79
2023-04-24T00:07:56.614Z,11.79
2023-04-24T00:10:42.674Z,11.81
2023-04-24T00:13:30.310Z,11.78
2023-04-24T00:16:16.169Z,11.77
2023-04-24T00:19:02.098Z,11.79
2023-04-24T00:21:50.817Z,11.78
2023-04-24T00:24:36.997Z,11.78
2023-04-24T00:27:22.733Z,11.76
2023-04-24T00:30:10.620Z,11.78
2023-04-24T00:32:56.865Z,11.79
2023-04-24T00:35:43.550Z,11.86
2023-04-24T00:38:30.871Z,11.87
2023-04-24T00:41:17.223Z,11.84
2023-04-24T00:44:03.221Z,11.79
2023-04-24T00:46:52.841Z,11.78
2023-04-24T00:49:38.527Z,11.72
2023-04-24T00:52:25.157Z,11.67
2023-04-24T00:55:11.418Z,11.64
2023-04-24T00:57:57.471Z,11.60
2023-04-24T01:00:43.210Z,11.58
2023-04-24T01:03:31.527Z,11.55
2023-04-24T01:06:17.605Z,11.45
2023-04-24T01:09:03.564Z,11.40
2023-04-24T01:11:49.717Z,11.36
2023-04-24T01:14:35.672Z,11.29
2023-04-24T01:17:21.988Z,11.23
2023-04-24T01:20:10.038Z,11.14
2023-04-24T01:22:58.330Z,11.10
2023-04-24T01:25:44.325Z,11.06
2023-04-24T01:28:30.266Z,11.04
2023-04-24T01:31:17.399Z,10.98
2023-04-24T01:34:03.150Z,10.89
2023-04-24T01:36:49.248Z,10.86
2023-04-24T01:39:36.891Z,10.78
2023-04-24T01:42:23.162Z,10.72
2023-04-24T01:45:10.219Z,10.68
2023-04-24T01:47:56.367Z,10.62
2023-04-24T01:50:43.684Z,10.58
2023-04-24T01:53:31.411Z,10.53
2023-04-24T01:56:18.829Z,10.53
2023-04-24T01:59:05.017Z,10.51
2023-04-24T02:01:51.151Z,10.50
2023-04-24T02:04:39.158Z,10.49
2023-04-24T02:07:25.039Z,10.48
2023-04-24T02:10:11.502Z,10.49
2023-04-24T02:13:03.580Z,10.45
2023-04-24T02:15:49.364Z,10.44
2023-04-24T02:18:35.117Z,10.41
2023-04-24T02:21:21.138Z,10.44
2023-04-24T02:24:06.949Z,10.43
2023-04-24T02:26:52.712Z,10.45
2023-04-24T02:29:41.169Z,10.46
2023-04-24T02:32:27.136Z,10.45
2023-04-24T02:35:13.018Z,10.45
2023-04-24T02:37:59.348Z,10.45
2023-04-24T02:40:45.245Z,10.43
2023-04-24T02:43:31.243Z,10.43
2023-04-24T02:46:19.054Z,10.42
2023-04-24T02:49:05.134Z,10.41
2023-04-24T02:51:50.841Z,10.38
2023-04-24T02:54:36.740Z,10.43
2023-04-24T02:57:22.399Z,10.41
2023-04-24T03:00:09.822Z,10.39
2023-04-24T03:02:57.108Z,10.38
2023-04-24T03:05:43.206Z,10.35
2023-04-24T03:08:29.324Z,10.34
2023-04-24T03:11:15.077Z,10.28
2023-04-24T03:14:01.382Z,10.26
2023-04-24T03:16:47.117Z,10.28
2023-04-24T03:19:34.733Z,10.26
2023-04-24T03:22:25.634Z,10.20
2023-04-24T03:25:12.188Z,10.16
2023-04-24T03:27:57.947Z,10.20
2023-04-24T03:31:02.590Z,10.15
2023-04-24T03:33:52.986Z,10.15
2023-04-24T03:36:40.500Z,10.10
2023-04-24T03:39:28.326Z,10.07
2023-04-24T03:42:15.988Z,10.02
2023-04-24T03:45:10.566Z,9.98
2023-04-24T03:47:59.314Z,9.91
2023-04-24T03:50:45.652Z,9.88
2023-04-24T03:53:33.877Z,9.83
2023-04-24T03:56:19.782Z,9.80
2023-04-24T03:59:06.136Z,9.77
2023-04-24T04:01:53.382Z,9.70
2023-04-24T04:04:40.681Z,9.68
2023-04-24T04:07:27.268Z,9.63
2023-04-24T04:10:15.210Z,9.58
2023-04-24T04:13:01.365Z,9.58
2023-04-24T04:15:47.367Z,9.54
2023-04-24T04:18:34.303Z,9.54
2023-04-24T04:21:20.414Z,9.53
2023-04-24T04:24:08.550Z,9.52
2023-04-24T04:27:00.219Z,9.49
2023-04-24T04:29:53.483Z,9.50
2023-04-24T04:32:40.058Z,9.49
2023-04-24T04:35:25.879Z,9.51
2023-04-24T04:38:12.226Z,9.50
2023-04-24T04:41:03.192Z,9.52
2023-04-24T04:43:53.722Z,9.54
2023-04-24T04:46:39.663Z,9.54
2023-04-24T04:49:39.379Z,9.57
2023-04-24T04:52:29.577Z,9.59
2023-04-24T04:55:28.089Z,9.62
2023-04-24T04:58:31.651Z,9.63
2023-04-24T05:01:22.209Z,9.69
2023-04-24T05:04:09.554Z,9.75
2023-04-24T05:06:57.326Z,9.83
2023-04-24T05:09:45.737Z,9.88
2023-04-24T05:12:31.903Z,9.91
2023-04-24T05:15:18.448Z,9.94
2023-04-24T05:18:06.222Z,9.98
2023-04-24T05:20:52.788Z,10.02
2023-04-24T05:23:39.069Z,10.08
2023-04-24T05:26:25.843Z,10.15
2023-04-24T05:29:12.756Z,10.21
2023-04-24T05:31:58.947Z,10.27
2023-04-24T05:34:46.590Z,10.34
2023-04-24T05:37:33.384Z,10.40
2023-04-24T05:40:19.633Z,10.45
2023-04-24T05:43:05.536Z,10.50
2023-04-24T05:45:51.845Z,10.55
2023-04-24T05:48:38.241Z,10.59
2023-04-24T05:51:25.361Z,10.63
2023-04-24T05:54:13.060Z,10.71
2023-04-24T05:56:59.226Z,10.77
2023-04-24T05:59:54.565Z,10.80
2023-04-24T06:02:42.086Z,10.83
2023-04-24T06:05:31.571Z,10.87
2023-04-24T06:08:18.860Z,10.89
2023-04-24T06:11:06.531Z,10.95
2023-04-24T06:13:53.770Z,10.98
2023-04-24T06:16:58.043Z,11.00
2023-04-24T06:19:54.289Z,11.08
2023-04-24T06:22:42.243Z,11.06
2023-04-24T06:25:31.465Z,11.14
2023-04-24T06:28:17.544Z,11.12
2023-04-24T06:31:03.684Z,11.14
2023-04-24T06:33:49.767Z,11.16
2023-04-24T06:36:36.538Z,11.15
2023-04-24T06:39:22.641Z,11.23
2023-04-24T06:42:10.451Z,11.21
2023-04-24T06:44:56.139Z,11.24
2023-04-24T06:47:42.379Z,11.27
2023-04-24T06:50:27.998Z,11.26
2023-04-24T06:53:15.337Z,11.31
2023-04-24T06:56:01.448Z,11.32
2023-04-24T06:58:48.377Z,11.36
2023-04-24T07:01:34.532Z,11.37
2023-04-24T07:04:20.935Z,11.44
2023-04-24T07:07:07.690Z,11.54
2023-04-24T07:09:55.032Z,11.52
2023-04-24T07:12:41.241Z,11.49
2023-04-24T07:15:28.815Z,11.61
2023-04-24T07:18:15.037Z,11.60
2023-04-24T07:21:00.736Z,11.60
2023-04-24T07:23:46.435Z,11.65
2023-04-24T07:26:32.312Z,11.74
2023-04-24T07:29:18.079Z,11.89
2023-04-24T07:32:05.159Z,12.02
2023-04-24T07:34:51.498Z,12.02
2023-04-24T07:37:37.345Z,12.02
2023-04-24T07:40:23.001Z,11.97
2023-04-24T07:43:08.822Z,11.93
2023-04-24T07:45:54.606Z,12.02
2023-04-24T07:48:41.754Z,11.89
2023-04-24T07:51:28.432Z,11.99
2023-04-24T07:54:14.251Z,11.96
2023-04-24T07:56:59.979Z,11.89
2023-04-24T07:59:45.936Z,11.85
2023-04-24T08:02:32.344Z,11.86
2023-04-24T08:05:20.088Z,11.87
2023-04-24T08:08:06.334Z,11.87
2023-04-24T08:10:52.298Z,11.76
2023-04-24T08:13:38.262Z,11.75
2023-04-24T08:16:24.862Z,11.82
2023-04-24T08:19:11.041Z,11.84
2023-04-24T08:21:58.417Z,11.86
2023-04-24T08:24:44.623Z,11.84
2023-04-24T08:27:30.312Z,11.90
2023-04-24T08:30:16.597Z,11.92
2023-04-24T08:33:02.484Z,12.01
2023-04-24T08:35:48.212Z,11.99
2023-04-24T08:38:35.502Z,11.96
2023-04-24T08:41:22.234Z,11.96
2023-04-24T08:44:10.146Z,11.98
2023-04-24T08:46:56.786Z,12.00
2023-04-24T08:49:42.868Z,11.96
2023-04-24T08:52:29.457Z,11.98
2023-04-24T08:55:17.702Z,12.05
2023-04-24T08:58:03.839Z,11.98
2023-04-24T09:00:49.921Z,11.98
2023-04-24T09:03:36.165Z,12.04
2023-04-24T09:06:22.305Z,12.08
2023-04-24T09:09:08.206Z,12.14
2023-04-24T09:11:56.466Z,12.35
2023-04-24T09:14:45.921Z,12.35
2023-04-24T09:17:32.336Z,12.43
2023-04-24T09:20:18.261Z,12.44
2023-04-24T09:23:04.303Z,12.44
2023-04-24T09:25:50.784Z,12.33
2023-04-24T09:28:38.867Z,12.33
2023-04-24T09:31:25.615Z,12.42
2023-04-24T09:34:11.406Z,12.54
2023-04-24T09:36:57.661Z,12.69
2023-04-24T09:39:43.526Z,12.64
2023-04-24T09:42:31.446Z,12.71
2023-04-24T09:45:18.877Z,12.77
2023-04-24T09:48:04.974Z,12.79
2023-04-24T09:50:51.770Z,12.87
2023-04-24T09:53:37.734Z,12.86
2023-04-24T09:56:27.305Z,12.88
2023-04-24T09:59:13.464Z,12.76
2023-04-24T10:02:00.659Z,12.82
2023-04-24T10:04:55.687Z,12.75
2023-04-24T10:07:41.466Z,12.72
2023-04-24T10:10:27.400Z,12.88
2023-04-24T10:13:14.371Z,13.00
2023-04-24T10:16:00.376Z,13.03
2023-04-24T10:18:47.483Z,12.95
2023-04-24T10:21:33.563Z,12.96
2023-04-24T10:24:21.369Z,12.86
2023-04-24T10:27:07.631Z,12.80
2023-04-24T10:29:53.436Z,12.76
2023-04-24T10:32:39.322Z,12.82
2023-04-24T10:35:27.697Z,12.63
2023-04-24T10:38:14.177Z,12.67
2023-04-24T10:41:09.021Z,12.58
2023-04-24T10:44:05.882Z,12.60
2023-04-24T10:46:54.724Z,12.65
2023-04-24T10:49:41.070Z,12.60
2023-04-24T10:52:28.149Z,12.70
2023-04-24T10:55:14.492Z,12.73
2023-04-24T10:58:04.409Z,12.80
2023-04-24T11:00:57.954Z,12.65
2023-04-24T11:03:43.813Z,12.68
2023-04-24T11:06:32.408Z,12.53
2023-04-24T11:09:19.661Z,12.51
2023-04-24T11:12:07.729Z,12.71
2023-04-24T11:15:03.314Z,12.87
2023-04-24T11:17:49.602Z,12.88
2023-04-24T11:20:35.448Z,12.82
2023-04-24T11:23:21.753Z,12.85
2023-04-24T11:26:14.144Z,12.78
2023-04-24T11:29:08.231Z,12.80
2023-04-24T11:31:54.024Z,12.67
2023-04-24T11:34:40.326Z,12.59
2023-04-24T11:37:26.736Z,12.48
2023-04-24T11:40:13.652Z,12.32
2023-04-24T11:43:01.890Z,12.23
2023-04-24T11:45:49.714Z,12.12
2023-04-24T11:48:37.114Z,12.14
2023-04-24T11:51:23.975Z,12.34
2023-04-24T11:54:10.366Z,12.56
2023-04-24T11:56:57.064Z,12.66
2023-04-24T11:59:44.280Z,13.30
2023-04-24T12:02:30.854Z,13.38
2023-04-24T12:05:21.277Z,13.34
2023-04-24T12:08:07.318Z,13.28
2023-04-24T12:10:53.166Z,13.17
2023-04-24T12:13:38.975Z,12.96
2023-04-24T12:16:28.559Z,12.86
2023-04-24T12:19:19.590Z,12.80
2023-04-24T12:22:06.105Z,12.94
2023-04-24T12:24:59.020Z,12.62
2023-04-24T12:27:45.163Z,12.42
2023-04-24T12:30:31.454Z,12.24
2023-04-24T12:33:20.478Z,12.09
2023-04-24T12:36:07.346Z,12.18
2023-04-24T12:38:54.749Z,12.18
2023-04-24T12:41:40.530Z,11.99
2023-04-24T12:44:33.014Z,11.88
2023-04-24T12:47:19.187Z,11.76
2023-04-24T12:50:07.644Z,11.61
2023-04-24T12:52:53.827Z,11.42
2023-04-24T12:55:39.697Z,11.38
2023-04-24T12:58:25.631Z,11.32
2023-04-24T13:01:11.452Z,11.30
2023-04-24T13:03:57.820Z,11.23
2023-04-24T13:06:45.232Z,11.18
2023-04-24T13:09:32.193Z,11.14
2023-04-24T13:12:18.201Z,11.11
2023-04-24T13:15:05.261Z,11.09
2023-04-24T13:17:51.208Z,11.00
2023-04-24T13:20:37.372Z,11.02
2023-04-24T13:23:24.742Z,10.97
2023-04-24T13:26:10.518Z,10.96
2023-04-24T13:28:56.343Z,11.01
2023-04-24T13:31:42.041Z,11.22
2023-04-24T13:34:27.981Z,11.25
2023-04-24T13:37:14.004Z,11.28
2023-04-24T13:40:01.480Z,11.28
2023-04-24T13:42:47.125Z,11.03
2023-04-24T13:45:32.705Z,11.10
2023-04-24T13:48:18.903Z,10.95
2023-04-24T13:51:05.214Z,10.88
2023-04-24T13:53:51.021Z,10.72
2023-04-24T13:56:38.282Z,10.66
2023-04-24T13:59:24.172Z,10.66
2023-04-24T14:02:09.772Z,10.67
2023-04-24T14:04:56.137Z,10.40
2023-04-24T14:07:42.121Z,10.43
2023-04-24T14:10:28.077Z,10.39
2023-04-24T14:13:16.310Z,10.47
2023-04-24T14:16:02.285Z,10.39
2023-04-24T14:18:48.509Z,10.32
2023-04-24T14:21:34.442Z,10.20
2023-04-24T14:24:20.378Z,10.17
2023-04-24T14:27:06.312Z,10.07
2023-04-24T14:29:53.874Z,10.15
2023-04-24T14:32:39.998Z,10.11
2023-04-24T14:35:25.866Z,10.07
2023-04-24T14:38:12.055Z,10.06
2023-04-24T14:41:06.757Z,10.04
2023-04-24T14:43:54.277Z,10.06
2023-04-24T14:46:41.816Z,10.04
2023-04-24T14:49:28.128Z,10.07
2023-04-24T14:52:13.866Z,10.14
2023-04-24T14:54:59.741Z,10.00
2023-04-24T14:57:45.618Z,10.02
2023-04-24T15:00:31.579Z,10.06
2023-04-24T15:03:19.110Z,10.10
2023-04-24T15:06:05.315Z,10.06
2023-04-24T15:08:51.078Z,10.10
2023-04-24T15:11:37.163Z,10.18
2023-04-24T15:14:23.623Z,10.22
2023-04-24T15:17:09.389Z,10.33
2023-04-24T15:19:56.513Z,10.41
2023-04-24T15:22:42.270Z,10.37
2023-04-24T15:25:28.001Z,10.47
2023-04-24T15:28:14.079Z,10.50
2023-04-24T15:31:00.532Z,10.45
2023-04-24T15:33:46.809Z,10.40
2023-04-24T15:36:34.488Z,10.41
2023-04-24T15:39:21.793Z,10.32
2023-04-24T15:42:07.535Z,10.27
2023-04-24T15:44:53.518Z,10.29
2023-04-24T15:47:39.531Z,10.29
2023-04-24T15:50:25.849Z,10.31
2023-04-24T15:53:13.143Z,10.28
2023-04-24T15:55:58.874Z,10.30
2023-04-24T15:58:44.759Z,10.34
2023-04-24T16:01:31.065Z,10.23
2023-04-24T16:04:17.005Z,10.27
2023-04-24T16:07:03.140Z,10.26
2023-04-24T16:09:50.559Z,10.23
2023-04-24T16:12:36.322Z,10.15
2023-04-24T16:15:22.333Z,10.17
2023-04-24T16:18:08.192Z,10.16
2023-04-24T16:20:54.845Z,10.09
2023-04-24T16:23:40.939Z,9.93
2023-04-24T16:26:28.545Z,9.91
2023-04-24T16:29:15.397Z,9.87
2023-04-24T16:32:01.396Z,9.92
2023-04-24T16:34:47.368Z,9.75
2023-04-24T16:37:33.124Z,9.76
2023-04-24T16:40:19.499Z,9.65
2023-04-24T16:43:06.558Z,9.60
2023-04-24T16:45:52.615Z,9.56
2023-04-24T16:48:38.397Z,9.44
2023-04-24T16:51:24.168Z,9.57
2023-04-24T16:54:10.030Z,9.43
2023-04-24T16:56:55.775Z,9.44
2023-04-24T16:59:42.848Z,9.48
2023-04-24T17:02:29.265Z,9.37
2023-04-24T17:05:15.581Z,9.35
2023-04-24T17:08:01.379Z,9.36
2023-04-24T17:10:47.005Z,9.34
2023-04-24T17:13:32.700Z,9.26
2023-04-24T17:16:20.015Z,9.23
2023-04-24T17:19:05.850Z,9.22
2023-04-24T17:21:51.640Z,9.20
2023-04-24T17:24:37.828Z,9.23
2023-04-24T17:27:25.030Z,9.23
2023-04-24T17:30:11.370Z,9.15
2023-04-24T17:32:58.795Z,9.18
2023-04-24T17:35:44.832Z,9.21
2023-04-24T17:38:30.684Z,9.20
2023-04-24T17:41:17.004Z,9.12
2023-04-24T17:44:02.793Z,9.05
2023-04-24T17:46:48.441Z,9.07
2023-04-24T17:49:35.737Z,9.05
2023-04-24T17:52:21.671Z,9.07
2023-04-24T17:55:07.702Z,9.07
2023-04-24T17:57:53.650Z,9.00
2023-04-24T18:00:39.911Z,8.96
2023-04-24T18:03:26.219Z,8.88
2023-04-24T18:06:17.116Z,8.79
2023-04-24T18:09:03.335Z,8.84
2023-04-24T18:11:50.074Z,8.75
2023-04-24T18:14:35.891Z,8.73
2023-04-24T18:17:21.651Z,8.65
2023-04-24T18:20:07.935Z,8.60
2023-04-24T18:22:55.368Z,8.54
2023-04-24T18:25:41.422Z,8.49
2023-04-24T18:28:28.410Z,8.43
2023-04-24T18:31:14.568Z,8.34
2023-04-24T18:34:00.780Z,8.34
2023-04-24T18:36:46.596Z,8.25
2023-04-24T18:39:33.941Z,8.17
2023-04-24T18:42:19.920Z,8.13
2023-04-24T18:45:06.318Z,8.12
2023-04-24T18:47:52.791Z,8.07
2023-04-24T18:50:40.570Z,8.02
2023-04-24T18:53:27.153Z,7.94
2023-04-24T18:56:14.151Z,7.94
2023-04-24T18:59:00.269Z,7.84
2023-04-24T19:01:46.252Z,7.84
2023-04-24T19:04:31.930Z,7.80
2023-04-24T19:07:20.589Z,7.76
2023-04-24T19:10:07.360Z,7.72
2023-04-24T19:12:56.688Z,7.73
2023-04-24T19:15:42.592Z,7.67
2023-04-24T19:18:29.311Z,7.65
2023-04-24T19:21:15.212Z,7.59
2023-04-24T19:24:01.036Z,7.60
2023-04-24T19:26:46.858Z,7.54
2023-04-24T19:29:34.004Z,7.51
2023-04-24T19:32:20.138Z,7.46
2023-04-24T19:35:06.813Z,7.45
2023-04-24T19:37:52.751Z,7.38
2023-04-24T19:40:38.571Z,7.35
2023-04-24T19:43:24.549Z,7.28
2023-04-24T19:46:11.577Z,7.22
2023-04-24T19:48:57.445Z,7.19
2023-04-24T19:51:43.359Z,7.18
2023-04-24T19:54:29.683Z,7.12
2023-04-24T19:57:18.458Z,7.11
2023-04-24T20:00:04.898Z,7.12
2023-04-24T20:02:52.346Z,7.10
2023-04-24T20:05:38.450Z,7.10
2023-04-24T20:08:24.906Z,7.09
2023-04-24T20:11:11.286Z,7.06
2023-04-24T20:13:57.479Z,7.06
2023-04-24T20:16:43.924Z,7.01
2023-04-24T20:19:31.253Z,6.98
2023-04-24T20:22:17.733Z,6.95
2023-04-24T20:25:04.056Z,6.93
2023-04-24T20:27:50.476Z,6.96
2023-04-24T20:30:37.893Z,6.97
2023-04-24T20:33:25.545Z,6.99
2023-04-24T20:36:12.869Z,6.98
2023-04-24T20:38:59.206Z,6.99
2023-04-24T20:41:46.222Z,6.98
2023-04-24T20:44:32.602Z,6.98
2023-04-24T20:47:18.904Z,7.02
2023-04-24T20:50:06.385Z,7.03
2023-04-24T20:52:53.945Z,7.08
2023-04-24T20:55:40.154Z,7.08
2023-04-24T20:58:26.501Z,7.13
2023-04-24T21:01:12.620Z,7.16
2023-04-24T21:03:58.878Z,7.18
2023-04-24T21:06:44.752Z,7.21
2023-04-24T21:09:32.171Z,7.24
2023-04-24T21:12:18.286Z,7.28
2023-04-24T21:15:05.516Z,7.28
2023-04-24T21:17:51.453Z,7.32
2023-04-24T21:20:37.831Z,7.35
2023-04-24T21:23:23.713Z,7.38
2023-04-24T21:26:10.825Z,7.36
2023-04-24T21:28:56.795Z,7.41
2023-04-24T21:31:42.572Z,7.40
2023-04-24T21:34:28.253Z,7.42
2023-04-24T21:37:15.350Z,7.45
2023-04-24T21:40:02.361Z,7.47
2023-04-24T21:42:49.524Z,7.47
2023-04-24T21:45:35.693Z,7.49
2023-04-24T21:48:21.725Z,7.48
2023-04-24T21:51:07.474Z,7.49
2023-04-24T21:53:53.364Z,7.46
2023-04-24T21:56:39.148Z,7.50
2023-04-24T21:59:26.441Z,7.47
2023-04-24T22:02:12.923Z,7.44
2023-04-24T22:05:03.293Z,7.46
2023-04-24T22:07:50.740Z,7.42
2023-04-24T22:10:37.192Z,7.43
2023-04-24T22:13:23.408Z,7.45
2023-04-24T22:16:10.453Z,7.44
2023-04-24T22:18:56.292Z,7.40
2023-04-24T22:21:42.188Z,7.44
2023-04-24T22:24:27.849Z,7.43
2023-04-24T22:27:13.736Z,7.42
2023-04-24T22:29:59.396Z,7.41
2023-04-24T22:32:46.581Z,7.42
2023-04-24T22:35:32.418Z,7.41
2023-04-24T22:38:18.164Z,7.42
2023-04-24T22:41:04.276Z,7.40
2023-04-24T22:43:51.042Z,7.35
2023-04-24T22:46:37.094Z,7.37
2023-04-24T22:49:27.030Z,7.36
2023-04-24T22:52:14.382Z,7.27
2023-04-24T22:55:00.709Z,7.28
2023-04-24T22:57:46.771Z,7.24
2023-04-24T23:00:32.712Z,7.23
2023-04-24T23:03:18.660Z,7.23
2023-04-24T23:06:06.184Z,7.24
2023-04-24T23:08:52.011Z,7.20
2023-04-24T23:11:37.718Z,7.19
2023-04-24T23:14:24.492Z,7.19
2023-04-24T23:17:10.382Z,7.16
2023-04-24T23:19:56.154Z,7.18
2023-04-24T23:22:43.295Z,7.15
2023-04-24T23:25:29.120Z,7.11
2023-04-24T23:28:14.789Z,7.12
2023-04-24T23:31:00.680Z,7.08
2023-04-24T23:33:46.995Z,7.08
2023-04-24T23:36:33.093Z,7.10
2023-04-24T23:39:20.387Z,7.11
2023-04-24T23:42:07.572Z,7.12
2023-04-24T23:44:54.018Z,7.11
2023-04-24T23:47:40.971Z,7.06
2023-04-24T23:50:26.899Z,7.08
2023-04-24T23:53:12.767Z,7.09
2023-04-24T23:56:00.454Z,7.01
2023-04-24T23:58:46.605Z,6.98
